createdAt,value
2024-03-12T00:00:46.796Z,19.08
2024-03-12T00:03:13.402Z,19.13
2024-03-12T00:05:41.879Z,19.50
2024-03-12T00:08:08.901Z,17.52
2024-03-12T00:10:35.554Z,18.90
2024-03-12T00:13:03.192Z,19.77
2024-03-12T00:15:30.214Z,18.60
2024-03-12T00:17:56.966Z,20.42
2024-03-12T00:20:36.482Z,21.25
2024-03-12T00:23:03.403Z,19.63
2024-03-12T00:25:31.740Z,20.02
2024-03-12T00:27:58.479Z,19.63
2024-03-12T00:30:31.958Z,21.05
2024-03-12T00:32:59.312Z,19.55
2024-03-12T00:35:29.274Z,19.35
2024-03-12T00:37:58.105Z,21.02
2024-03-12T00:40:34.182Z,19.00
2024-03-12T00:43:01.540Z,20.42
2024-03-12T00:45:30.848Z,20.05
2024-03-12T00:47:58.530Z,20.73
2024-03-12T00:50:25.205Z,20.67
2024-03-12T00:52:54.345Z,20.30
2024-03-12T00:55:22.121Z,21.70
2024-03-12T00:57:53.866Z,21.38
2024-03-12T01:00:26.911Z,20.63
2024-03-12T01:02:55.404Z,20.67
2024-03-12T01:05:26.659Z,19.65
2024-03-12T01:08:00.034Z,18.80
2024-03-12T01:10:31.591Z,21.05
2024-03-12T01:13:00.160Z,21.85
2024-03-12T01:15:27.767Z,21.17
2024-03-12T01:17:55.271Z,20.60
2024-03-12T01:20:23.092Z,20.98
2024-03-12T01:22:51.700Z,21.67
2024-03-12T01:25:19.166Z,20.23
2024-03-12T01:27:45.707Z,21.00
2024-03-12T01:30:15.645Z,20.52
2024-03-12T01:32:42.687Z,20.42
2024-03-12T01:35:09.592Z,19.75
2024-03-12T01:37:44.189Z,20.10
2024-03-12T01:40:22.706Z,21.08
2024-03-12T01:42:55.303Z,20.35
2024-03-12T01:45:23.975Z,21.63
2024-03-12T01:47:56.045Z,21.65
2024-03-12T01:50:25.788Z,21.58
2024-03-12T01:52:59.425Z,20.90
2024-03-12T01:55:26.197Z,19.13
2024-03-12T01:57:55.779Z,18.38
2024-03-12T02:00:22.905Z,20.33
2024-03-12T02:02:53.489Z,20.38
2024-03-12T02:05:20.928Z,19.05
2024-03-12T02:07:50.952Z,19.75
2024-03-12T02:10:20.101Z,19.90
2024-03-12T02:12:47.470Z,20.25
2024-03-12T02:15:18.902Z,21.00
2024-03-12T02:17:46.107Z,21.08
2024-03-12T02:20:14.009Z,21.08
2024-03-12T02:22:41.401Z,21.08
2024-03-12T02:25:11.304Z,21.63
2024-03-12T02:27:38.938Z,19.00
2024-03-12T02:30:06.244Z,19.63
2024-03-12T02:32:33.765Z,20.15
2024-03-12T02:35:00.557Z,20.20
2024-03-12T02:37:27.086Z,18.92
2024-03-12T02:39:53.608Z,19.35
2024-03-12T02:42:20.218Z,19.45
2024-03-12T02:44:47.029Z,19.33
2024-03-12T02:47:14.084Z,21.55
2024-03-12T02:49:40.862Z,20.20
2024-03-12T02:52:07.999Z,20.67
2024-03-12T02:54:34.562Z,20.23
2024-03-12T02:57:01.151Z,20.20
2024-03-12T02:59:28.534Z,19.33
2024-03-12T03:01:58.540Z,20.05
2024-03-12T03:04:25.134Z,21.65
2024-03-12T03:06:52.568Z,20.70
2024-03-12T03:09:19.753Z,19.40
2024-03-12T03:11:46.467Z,20.13
2024-03-12T03:14:13.026Z,18.77
2024-03-12T03:16:39.509Z,17.88
2024-03-12T03:19:06.561Z,19.98
2024-03-12T03:21:33.158Z,19.67
2024-03-12T03:23:59.823Z,19.73
2024-03-12T03:26:26.378Z,20.83
2024-03-12T03:28:52.883Z,19.63
2024-03-12T03:31:19.478Z,19.67
2024-03-12T03:33:48.640Z,19.38
2024-03-12T03:36:15.423Z,19.92
2024-03-12T03:38:42.134Z,19.35
2024-03-12T03:41:10.494Z,19.70
2024-03-12T03:43:38.682Z,21.55
2024-03-12T03:46:06.241Z,21.08
2024-03-12T03:48:32.820Z,20.35
2024-03-12T03:50:59.338Z,19.27
2024-03-12T03:53:26.103Z,20.13
2024-03-12T03:55:55.437Z,19.73
2024-03-12T03:58:24.739Z,20.05
2024-03-12T04:00:54.204Z,22.38
2024-03-12T04:03:21.804Z,20.42
2024-03-12T04:05:48.536Z,21.30
2024-03-12T04:08:17.305Z,21.70
2024-03-12T04:10:43.948Z,22.50
2024-03-12T04:13:10.826Z,20.85
2024-03-12T04:15:37.547Z,21.15
2024-03-12T04:18:04.234Z,20.23
2024-03-12T04:20:30.807Z,19.67
2024-03-12T04:22:57.426Z,20.40
2024-03-12T04:25:24.021Z,20.98
2024-03-12T04:27:52.006Z,19.83
2024-03-12T04:30:19.739Z,19.83
2024-03-12T04:32:48.670Z,19.38
2024-03-12T04:35:15.287Z,18.75
2024-03-12T04:37:42.132Z,18.65
2024-03-12T04:40:09.409Z,19.83
2024-03-12T04:42:37.796Z,20.30
2024-03-12T04:45:08.802Z,20.10
2024-03-12T04:47:38.385Z,21.05
2024-03-12T04:50:05.479Z,20.30
2024-03-12T04:52:34.805Z,20.48
2024-03-12T04:55:01.751Z,21.17
2024-03-12T04:57:28.436Z,19.67
2024-03-12T04:59:55.742Z,20.15
2024-03-12T05:02:22.232Z,22.33
2024-03-12T05:04:48.712Z,21.67
2024-03-12T05:07:15.265Z,20.85
2024-03-12T05:09:41.827Z,20.95
2024-03-12T05:12:08.482Z,21.10
2024-03-12T05:14:35.072Z,19.02
2024-03-12T05:17:01.600Z,21.55
2024-03-12T05:19:28.129Z,20.90
2024-03-12T05:21:54.731Z,20.52
2024-03-12T05:24:21.303Z,22.23
2024-03-12T05:26:50.508Z,23.48
2024-03-12T05:29:18.759Z,21.50
2024-03-12T05:31:45.464Z,20.50
2024-03-12T05:34:20.113Z,20.63
2024-03-12T05:36:49.916Z,19.60
2024-03-12T05:39:20.590Z,21.83
2024-03-12T05:44:35.504Z,20.83
2024-03-12T05:47:20.421Z,19.33
2024-03-12T05:49:46.895Z,18.88
2024-03-12T05:52:13.510Z,21.25
2024-03-12T05:54:41.624Z,21.27
2024-03-12T05:57:08.203Z,19.60
2024-03-12T05:59:34.676Z,20.27
2024-03-12T06:02:01.895Z,21.25
2024-03-12T06:04:33.156Z,18.98
2024-03-12T06:07:02.953Z,20.55
2024-03-12T06:09:29.897Z,17.95
2024-03-12T06:11:56.406Z,19.35
2024-03-12T06:14:26.304Z,19.48
2024-03-12T06:16:52.987Z,18.42
2024-03-12T06:19:20.541Z,18.73
2024-03-12T06:21:47.524Z,20.73
2024-03-12T06:24:14.133Z,18.73
2024-03-12T06:26:41.283Z,18.65
2024-03-12T06:29:08.241Z,17.80
2024-03-12T06:31:35.967Z,19.30
2024-03-12T06:34:03.293Z,19.00
2024-03-12T06:36:29.834Z,19.30
2024-03-12T06:38:56.328Z,19.25
2024-03-12T06:41:25.514Z,18.48
2024-03-12T06:43:52.145Z,17.38
2024-03-12T06:46:20.917Z,17.85
2024-03-12T06:48:48.491Z,16.70
2024-03-12T06:51:16.729Z,16.92
2024-03-12T06:53:44.449Z,17.17
2024-03-12T06:56:12.657Z,17.92
2024-03-12T06:58:45.989Z,17.33
2024-03-12T07:01:14.771Z,17.17
2024-03-12T07:03:43.830Z,16.98
2024-03-12T07:06:10.418Z,17.45
2024-03-12T07:08:40.127Z,17.00
2024-03-12T07:11:08.625Z,18.43
2024-03-12T07:13:35.550Z,18.55
2024-03-12T07:16:04.204Z,16.15
2024-03-12T07:18:30.748Z,16.00
2024-03-12T07:20:57.379Z,16.75
2024-03-12T07:23:23.914Z,16.95
2024-03-12T07:25:50.986Z,17.33
2024-03-12T07:28:20.735Z,16.85
2024-03-12T07:30:51.246Z,16.58
2024-03-12T07:33:18.037Z,16.70
2024-03-12T07:35:44.697Z,17.45
2024-03-12T07:38:11.191Z,17.65
2024-03-12T07:40:39.309Z,16.75
2024-03-12T07:43:07.095Z,17.42
2024-03-12T07:45:33.770Z,17.58
2024-03-12T07:48:00.428Z,17.05
2024-03-12T07:50:31.862Z,17.00
2024-03-12T07:52:58.421Z,16.58
2024-03-12T07:55:26.424Z,15.75
2024-03-12T07:57:53.006Z,17.38
2024-03-12T08:00:20.388Z,17.10
2024-03-12T08:02:47.065Z,16.80
2024-03-12T08:05:14.056Z,16.20
2024-03-12T08:07:41.015Z,16.85
2024-03-12T08:10:10.558Z,16.48
2024-03-12T08:12:40.412Z,16.52
2024-03-12T08:15:08.282Z,16.85
2024-03-12T08:17:34.930Z,16.33
2024-03-12T08:20:01.471Z,16.23
2024-03-12T08:22:28.281Z,16.98
2024-03-12T08:24:56.058Z,17.20
2024-03-12T08:27:22.640Z,15.25
2024-03-12T08:29:49.229Z,17.30
2024-03-12T08:32:15.804Z,15.05
2024-03-12T08:34:43.066Z,15.77
2024-03-12T08:37:12.695Z,15.75
2024-03-12T08:39:39.489Z,15.90
2024-03-12T08:42:08.711Z,15.68
2024-03-12T08:44:35.296Z,15.80
2024-03-12T08:47:01.760Z,15.13
2024-03-12T08:49:28.250Z,15.90
2024-03-12T08:51:54.781Z,14.88
2024-03-12T08:54:21.314Z,16.60
2024-03-12T08:56:47.833Z,16.30
2024-03-12T08:59:15.081Z,16.40
2024-03-12T09:01:41.953Z,16.58
2024-03-12T09:04:09.295Z,17.33
2024-03-12T09:06:36.270Z,16.80
2024-03-12T09:09:02.822Z,16.45
2024-03-12T09:11:29.431Z,16.48
2024-03-12T09:13:55.970Z,16.45
2024-03-12T09:16:22.950Z,17.08
2024-03-12T09:18:49.664Z,15.27
2024-03-12T09:21:16.507Z,16.25
2024-03-12T09:23:53.477Z,17.25
2024-03-12T09:26:28.835Z,15.95
2024-03-12T09:28:55.392Z,16.98
2024-03-12T09:31:21.984Z,15.98
2024-03-12T09:33:49.101Z,15.95
2024-03-12T09:36:15.918Z,15.77
2024-03-12T09:38:45.052Z,16.25
2024-03-12T09:41:14.304Z,15.40
2024-03-12T09:43:45.043Z,15.55
2024-03-12T09:46:17.514Z,15.00
2024-03-12T09:48:46.128Z,15.80
2024-03-12T09:51:13.273Z,15.20
2024-03-12T09:53:42.301Z,13.57
2024-03-12T09:56:09.497Z,14.90
2024-03-12T09:58:36.040Z,14.52
2024-03-12T10:01:07.394Z,15.18
2024-03-12T10:03:37.177Z,14.82
2024-03-12T10:06:04.146Z,15.88
2024-03-12T10:08:30.889Z,15.85
2024-03-12T10:10:58.026Z,14.88
2024-03-12T10:13:25.121Z,14.82
2024-03-12T10:16:00.826Z,14.50
2024-03-12T10:18:30.803Z,15.10
2024-03-12T10:21:02.748Z,14.23
2024-03-12T10:23:35.727Z,13.40
2024-03-12T10:26:19.332Z,13.65
2024-03-12T10:28:47.024Z,13.55
2024-03-12T10:31:14.648Z,14.40
2024-03-12T10:33:45.788Z,13.23
2024-03-12T10:36:12.952Z,13.27
2024-03-12T10:38:41.187Z,14.18
2024-03-12T10:41:20.659Z,14.65
2024-03-12T10:43:51.118Z,13.43
2024-03-12T10:46:20.566Z,14.13
2024-03-12T10:48:48.891Z,14.07
2024-03-12T10:51:16.892Z,18.52
2024-03-12T10:53:47.589Z,21.52
2024-03-12T10:58:47.872Z,22.40
2024-03-12T11:01:16.173Z,19.85
2024-03-12T11:03:44.088Z,17.77
2024-03-12T11:06:13.836Z,16.13
2024-03-12T11:08:40.705Z,17.07
2024-03-12T11:11:10.171Z,16.27
2024-03-12T11:13:37.084Z,15.90
2024-03-12T11:16:11.450Z,17.50
2024-03-12T11:18:40.032Z,17.33
2024-03-12T11:21:11.401Z,17.33
2024-03-12T11:23:37.996Z,18.52
2024-03-12T11:26:05.832Z,19.30
2024-03-12T11:28:33.457Z,17.00
2024-03-12T11:31:03.204Z,18.58
2024-03-12T11:33:38.818Z,17.92
2024-03-12T11:36:12.047Z,17.75
2024-03-12T11:38:38.747Z,18.08
2024-03-12T11:41:05.288Z,18.33
2024-03-12T11:43:39.323Z,18.45
2024-03-12T11:46:08.318Z,20.30
2024-03-12T11:48:42.564Z,19.35
2024-03-12T11:51:13.308Z,20.15
2024-03-12T11:53:42.578Z,19.65
2024-03-12T11:56:17.786Z,20.70
2024-03-12T11:58:49.525Z,19.58
2024-03-12T12:01:20.458Z,18.77
2024-03-12T12:03:51.410Z,20.17
2024-03-12T12:06:20.647Z,19.85
2024-03-12T12:08:57.237Z,20.20
2024-03-12T12:11:27.632Z,19.40
2024-03-12T12:14:00.540Z,20.08
2024-03-12T12:16:29.389Z,21.75
2024-03-12T12:19:06.531Z,20.17
2024-03-12T12:21:34.541Z,21.52
2024-03-12T12:24:03.695Z,20.55
2024-03-12T12:26:37.381Z,20.43
2024-03-12T12:29:05.305Z,20.77
2024-03-12T12:31:36.935Z,21.83
2024-03-12T12:34:06.565Z,20.27
2024-03-12T12:36:37.074Z,20.35
2024-03-12T12:39:05.313Z,19.80
2024-03-12T12:41:58.713Z,19.20
2024-03-12T12:44:28.352Z,20.13
2024-03-12T12:46:56.045Z,20.30
2024-03-12T12:49:23.760Z,20.33
2024-03-12T12:51:51.327Z,20.35
2024-03-12T12:54:22.730Z,20.70
2024-03-12T12:56:50.940Z,20.58
2024-03-12T12:59:21.086Z,20.35
2024-03-12T13:01:49.536Z,20.92
2024-03-12T13:04:24.348Z,21.55
2024-03-12T13:06:53.217Z,21.02
2024-03-12T13:09:30.258Z,20.17
2024-03-12T13:11:58.270Z,22.40
2024-03-12T13:14:26.724Z,21.58
2024-03-12T13:16:54.078Z,20.70
2024-03-12T13:19:21.137Z,22.85
2024-03-12T13:21:49.329Z,22.33
2024-03-12T13:24:15.913Z,21.35
2024-03-12T13:26:42.955Z,22.48
2024-03-12T13:29:09.471Z,22.83
2024-03-12T13:31:36.340Z,21.30
2024-03-12T13:34:02.854Z,22.30
2024-03-12T13:36:29.502Z,22.92
2024-03-12T13:38:56.873Z,22.58
2024-03-12T13:41:26.573Z,22.95
2024-03-12T13:43:53.549Z,21.92
2024-03-12T13:46:20.750Z,23.13
2024-03-12T13:48:47.963Z,22.70
2024-03-12T13:51:14.696Z,22.88
2024-03-12T13:53:41.710Z,22.50
2024-03-12T13:56:11.227Z,23.17
2024-03-12T13:58:40.097Z,23.13
2024-03-12T14:01:12.509Z,22.85
2024-03-12T14:03:41.251Z,22.27
2024-03-12T14:06:10.284Z,22.52
2024-03-12T14:08:37.805Z,23.27
2024-03-12T14:11:04.798Z,21.40
2024-03-12T14:13:32.835Z,22.67
2024-03-12T14:16:00.085Z,22.85
2024-03-12T14:18:27.624Z,22.40
2024-03-12T14:20:55.985Z,24.00
2024-03-12T14:23:22.922Z,23.63
2024-03-12T14:25:51.977Z,24.10
2024-03-12T14:28:18.544Z,23.77
2024-03-12T14:30:45.944Z,24.77
2024-03-12T14:33:13.234Z,26.08
2024-03-12T14:35:40.157Z,25.67
2024-03-12T14:38:06.940Z,25.40
2024-03-12T14:40:33.535Z,26.48
2024-03-12T14:43:01.620Z,25.05
2024-03-12T14:45:28.793Z,27.45
2024-03-12T14:47:57.540Z,25.35
2024-03-12T14:50:24.188Z,27.23
2024-03-12T14:52:51.113Z,26.33
2024-03-12T14:55:17.639Z,24.55
2024-03-12T14:57:44.187Z,24.92
2024-03-12T15:00:11.658Z,26.63
2024-03-12T15:02:38.482Z,24.75
2024-03-12T15:05:12.102Z,24.92
2024-03-12T15:07:44.639Z,26.58
2024-03-12T15:10:11.871Z,25.40
2024-03-12T15:12:40.842Z,23.40
2024-03-12T15:15:12.133Z,23.85
2024-03-12T15:17:42.759Z,25.00
2024-03-12T15:20:17.057Z,23.80
2024-03-12T15:22:46.347Z,24.77
2024-03-12T15:25:13.510Z,24.20
2024-03-12T15:27:41.612Z,24.00
2024-03-12T15:30:08.617Z,23.42
2024-03-12T15:32:38.940Z,26.13
2024-03-12T15:35:06.797Z,24.42
2024-03-12T15:37:33.506Z,23.42
2024-03-12T15:40:06.569Z,24.15
2024-03-12T15:42:35.038Z,23.13
2024-03-12T15:45:05.863Z,24.17
2024-03-12T15:47:35.650Z,25.13
2024-03-12T15:50:02.565Z,24.25
2024-03-12T15:52:29.200Z,23.67
2024-03-12T15:54:56.149Z,23.92
2024-03-12T15:57:24.248Z,22.05
2024-03-12T15:59:51.063Z,22.38
2024-03-12T16:02:19.043Z,20.83
2024-03-12T16:04:45.819Z,23.30
2024-03-12T16:07:13.062Z,22.50
2024-03-12T16:09:39.747Z,23.30
2024-03-12T16:12:06.663Z,23.65
2024-03-12T16:14:33.685Z,22.45
2024-03-12T16:17:00.296Z,23.08
2024-03-12T16:19:31.045Z,24.40
2024-03-12T16:21:58.473Z,23.55
2024-03-12T16:24:28.633Z,24.95
2024-03-12T16:26:57.238Z,22.83
2024-03-12T16:29:24.976Z,22.13
2024-03-12T16:31:51.966Z,25.02
2024-03-12T16:34:18.874Z,23.40
2024-03-12T16:36:45.849Z,24.25
2024-03-12T16:39:14.219Z,23.50
2024-03-12T16:41:41.449Z,23.67
2024-03-12T16:44:07.958Z,24.55
2024-03-12T16:46:35.111Z,24.63
2024-03-12T16:49:01.924Z,24.30
2024-03-12T16:51:29.035Z,24.23
2024-03-12T16:53:55.807Z,23.17
2024-03-12T16:58:52.219Z,23.45
2024-03-12T17:01:21.112Z,22.77
2024-03-12T17:03:48.433Z,23.77
2024-03-12T17:06:17.261Z,22.95
2024-03-12T17:08:44.262Z,24.15
2024-03-12T17:11:11.173Z,22.55
2024-03-12T17:13:39.097Z,22.38
2024-03-12T17:16:08.165Z,23.08
2024-03-12T17:18:35.728Z,21.73
2024-03-12T17:21:03.770Z,22.88
2024-03-12T17:23:31.245Z,23.15
2024-03-12T17:25:58.457Z,23.55
2024-03-12T17:28:25.539Z,22.73
2024-03-12T17:30:52.579Z,22.58
2024-03-12T17:33:19.508Z,22.70
2024-03-12T17:35:48.500Z,23.23
2024-03-12T17:38:21.827Z,22.60
2024-03-12T17:40:53.933Z,23.27
2024-03-12T17:43:21.804Z,23.70
2024-03-12T17:45:48.672Z,21.73
2024-03-12T17:48:20.114Z,23.95
2024-03-12T17:50:46.904Z,24.13
2024-03-12T17:53:13.776Z,24.38
2024-03-12T17:55:43.858Z,21.20
2024-03-12T17:58:12.761Z,23.55
2024-03-12T18:00:39.582Z,22.75
2024-03-12T18:03:06.527Z,23.55
2024-03-12T18:05:33.176Z,23.00
2024-03-12T18:08:00.260Z,23.95
2024-03-12T18:10:28.150Z,22.10
2024-03-12T18:12:55.480Z,22.85
2024-03-12T18:15:24.285Z,23.70
2024-03-12T18:17:51.076Z,24.60
2024-03-12T18:20:29.010Z,24.17
2024-03-12T18:22:55.530Z,23.40
2024-03-12T18:25:22.566Z,21.63
2024-03-12T18:27:54.748Z,23.85
2024-03-12T18:30:21.565Z,22.67
2024-03-12T18:32:49.838Z,23.17
2024-03-12T18:35:18.322Z,24.13
2024-03-12T18:37:45.978Z,23.45
2024-03-12T18:40:14.346Z,24.00
2024-03-12T18:42:45.552Z,24.50
2024-03-12T18:45:18.966Z,31.20
2024-03-12T18:47:48.343Z,29.40
2024-03-12T18:50:15.709Z,29.42
2024-03-12T18:52:43.616Z,26.60
2024-03-12T18:55:11.292Z,27.08
2024-03-12T18:57:41.870Z,27.42
2024-03-12T19:00:18.953Z,24.98
2024-03-12T19:02:49.593Z,26.25
2024-03-12T19:05:21.330Z,26.10
2024-03-12T19:07:52.892Z,25.02
2024-03-12T19:10:20.792Z,24.95
2024-03-12T19:12:47.985Z,24.42
2024-03-12T19:15:16.617Z,25.75
2024-03-12T19:17:45.418Z,24.73
2024-03-12T19:20:16.958Z,24.73
2024-03-12T19:22:45.073Z,25.35
2024-03-12T19:25:13.532Z,25.35
2024-03-12T19:27:42.686Z,25.00
2024-03-12T19:30:09.560Z,25.80
2024-03-12T19:32:39.181Z,25.42
2024-03-12T19:35:07.958Z,26.10
2024-03-12T19:37:38.495Z,24.90
2024-03-12T19:42:46.034Z,23.70
2024-03-12T19:45:13.202Z,23.30
2024-03-12T19:47:45.173Z,22.88
2024-03-12T19:50:21.092Z,22.95
2024-03-12T19:52:48.751Z,22.67
2024-03-12T19:55:19.797Z,22.60
2024-03-12T19:57:48.491Z,24.83
2024-03-12T20:00:19.748Z,23.48
2024-03-12T20:02:50.108Z,23.90
2024-03-12T20:05:20.475Z,23.65
2024-03-12T20:10:14.726Z,22.05
2024-03-12T20:12:41.456Z,23.20
2024-03-12T20:15:12.806Z,23.40
2024-03-12T20:17:42.740Z,21.13
2024-03-12T20:20:14.329Z,25.02
2024-03-12T20:22:42.179Z,22.58
2024-03-12T20:25:12.839Z,24.00
2024-03-12T20:27:39.665Z,23.83
2024-03-12T20:30:06.823Z,24.10
2024-03-12T20:32:33.606Z,21.80
2024-03-12T20:35:00.687Z,24.60
2024-03-12T20:37:27.438Z,25.00
2024-03-12T20:39:54.219Z,20.63
2024-03-12T20:42:23.131Z,20.55
2024-03-12T20:44:50.812Z,18.80
2024-03-12T20:47:19.269Z,22.40
2024-03-12T20:49:46.236Z,21.70
2024-03-12T20:52:14.416Z,20.73
2024-03-12T20:54:43.791Z,21.20
2024-03-12T20:57:12.263Z,22.30
2024-03-12T20:59:42.413Z,21.13
2024-03-12T21:02:13.404Z,21.10
2024-03-12T21:04:42.854Z,21.92
2024-03-12T21:07:12.620Z,22.88
2024-03-12T21:09:39.766Z,23.67
2024-03-12T21:12:06.556Z,23.60
2024-03-12T21:14:33.122Z,23.67
2024-03-12T21:17:03.733Z,23.45
2024-03-12T21:19:30.599Z,22.83
2024-03-12T21:21:57.334Z,24.52
2024-03-12T21:24:24.985Z,23.25
2024-03-12T21:26:51.849Z,26.40
2024-03-12T21:29:19.867Z,26.73
2024-03-12T21:31:46.808Z,29.75
2024-03-12T21:34:13.492Z,27.67
2024-03-12T21:36:43.217Z,27.90
2024-03-12T21:39:10.005Z,28.00
2024-03-12T21:41:36.937Z,27.73
2024-03-12T21:44:03.437Z,28.30
2024-03-12T21:46:29.894Z,28.08
2024-03-12T21:48:56.589Z,28.98
2024-03-12T21:51:27.829Z,28.80
2024-03-12T21:53:57.996Z,31.40
2024-03-12T21:56:27.474Z,29.63
2024-03-12T21:58:54.319Z,29.73
2024-03-12T22:01:22.092Z,28.50
2024-03-12T22:03:51.354Z,27.67
2024-03-12T22:06:18.226Z,29.15
2024-03-12T22:08:47.467Z,29.27
2024-03-12T22:11:15.043Z,29.17
2024-03-12T22:13:45.447Z,29.13
2024-03-12T22:16:15.986Z,28.42
2024-03-12T22:18:43.731Z,30.05
2024-03-12T22:21:11.283Z,29.95
2024-03-12T22:23:41.477Z,30.08
2024-03-12T22:26:08.965Z,29.52
2024-03-12T22:28:36.101Z,30.02
2024-03-12T22:31:04.228Z,29.85
2024-03-12T22:33:30.828Z,32.30
2024-03-12T22:35:58.152Z,31.50
2024-03-12T22:38:28.423Z,32.70
2024-03-12T22:40:55.321Z,31.00
2024-03-12T22:43:27.399Z,29.45
2024-03-12T22:45:55.204Z,30.88
2024-03-12T22:48:22.410Z,30.73
2024-03-12T22:50:49.149Z,31.05
2024-03-12T22:53:20.144Z,30.70
2024-03-12T22:55:46.997Z,31.50
2024-03-12T22:58:13.771Z,30.17
2024-03-12T23:00:42.060Z,31.17
2024-03-12T23:03:13.796Z,29.60
2024-03-12T23:05:43.419Z,29.17
2024-03-12T23:08:15.336Z,29.57
2024-03-12T23:10:45.058Z,27.35
2024-03-12T23:13:12.422Z,27.58
2024-03-12T23:15:39.991Z,25.65
2024-03-12T23:18:10.562Z,25.55
2024-03-12T23:20:40.312Z,26.55
2024-03-12T23:23:08.309Z,26.33
2024-03-12T23:25:35.727Z,26.05
2024-03-12T23:28:02.345Z,25.48
2024-03-12T23:30:28.916Z,25.15
2024-03-12T23:32:58.949Z,24.80
2024-03-12T23:35:27.857Z,25.08
2024-03-12T23:37:58.203Z,23.98
2024-03-12T23:40:25.938Z,23.77
2024-03-12T23:42:54.695Z,23.00
2024-03-12T23:45:21.993Z,26.00
2024-03-12T23:47:49.457Z,22.90
2024-03-12T23:50:16.226Z,22.77
2024-03-12T23:52:43.104Z,23.27
2024-03-12T23:55:10.881Z,23.38
2024-03-12T23:57:38.194Z,25.75
